sensor_id;sensor_type;location;lat;lon;timestamp;pressure;altitude;pressure_sealevel;temperature;humidity
73558;BME280;61829;53.286;10.434;2023-04-24T00:01:12;99794.13;;;12.30;85.19
73558;BME280;61829;53.286;10.434;2023-04-24T00:03:39;99797.06;;;12.29;84.97
73558;BME280;61829;53.286;10.434;2023-04-24T00:06:17;99799.75;;;12.29;85.11
73558;BME280;61829;53.286;10.434;2023-04-24T00:08:43;99800.78;;;12.28;85.02
73558;BME280;61829;53.286;10.434;2023-04-24T00:11:09;99791.88;;;12.27;84.74
73558;BME280;61829;53.286;10.434;2023-04-24T00:13:35;99797.50;;;12.26;84.79
73558;BME280;61829;53.286;10.434;2023-04-24T00:16:01;99791.69;;;12.22;84.77
73558;BME280;61829;53.286;10.434;2023-04-24T00:18:27;99783.22;;;12.19;85.01
73558;BME280;61829;53.286;10.434;2023-04-24T00:20:58;99788.00;;;12.17;84.75
73558;BME280;61829;53.286;10.434;2023-04-24T00:23:24;99779.31;;;12.15;84.48
73558;BME280;61829;53.286;10.434;2023-04-24T00:25:50;99789.94;;;12.09;85.30
73558;BME280;61829;53.286;10.434;2023-04-24T00:28:16;99793.09;;;12.06;85.10
73558;BME280;61829;53.286;10.434;2023-04-24T00:30:41;99784.00;;;12.01;85.21
73558;BME280;61829;53.286;10.434;2023-04-24T00:33:07;99788.16;;;11.97;85.57
73558;BME280;61829;53.286;10.434;2023-04-24T00:35:33;99784.03;;;11.94;85.16
73558;BME280;61829;53.286;10.434;2023-04-24T00:37:59;99791.31;;;11.94;84.73
73558;BME280;61829;53.286;10.434;2023-04-24T00:40:25;99783.03;;;11.88;85.52
73558;BME280;61829;53.286;10.434;2023-04-24T00:42:50;99775.38;;;11.85;85.46
73558;BME280;61829;53.286;10.434;2023-04-24T00:45:16;99780.16;;;11.83;86.12
73558;BME280;61829;53.286;10.434;2023-04-24T00:47:42;99762.53;;;11.81;85.99
73558;BME280;61829;53.286;10.434;2023-04-24T00:50:08;99762.72;;;11.79;86.44
73558;BME280;61829;53.286;10.434;2023-04-24T00:52:35;99756.72;;;11.77;86.61
73558;BME280;61829;53.286;10.434;2023-04-24T00:55:02;99759.41;;;11.77;86.73
73558;BME280;61829;53.286;10.434;2023-04-24T00:57:28;99759.41;;;11.77;86.63
73558;BME280;61829;53.286;10.434;2023-04-24T00:59:54;99756.94;;;11.76;87.28
73558;BME280;61829;53.286;10.434;2023-04-24T01:02:21;99758.84;;;11.75;86.47
73558;BME280;61829;53.286;10.434;2023-04-24T01:04:50;99766.06;;;11.75;86.65
73558;BME280;61829;53.286;10.434;2023-04-24T01:07:19;99764.22;;;11.75;86.56
73558;BME280;61829;53.286;10.434;2023-04-24T01:09:47;99762.56;;;11.74;86.54
73558;BME280;61829;53.286;10.434;2023-04-24T01:12:15;99762.56;;;11.74;86.96
73558;BME280;61829;53.286;10.434;2023-04-24T01:14:40;99763.38;;;11.75;86.83
73558;BME280;61829;53.286;10.434;2023-04-24T01:17:07;99758.22;;;11.73;87.17
73558;BME280;61829;53.286;10.434;2023-04-24T01:19:32;99752.81;;;11.73;86.96
73558;BME280;61829;53.286;10.434;2023-04-24T01:22:02;99759.03;;;11.74;86.78
73558;BME280;61829;53.286;10.434;2023-04-24T01:24:28;99763.63;;;11.73;86.32
73558;BME280;61829;53.286;10.434;2023-04-24T01:26:54;99749.50;;;11.71;85.98
73558;BME280;61829;53.286;10.434;2023-04-24T01:29:20;99752.44;;;11.69;86.22
73558;BME280;61829;53.286;10.434;2023-04-24T01:31:47;99762.00;;;11.65;86.23
73558;BME280;61829;53.286;10.434;2023-04-24T01:34:13;99761.41;;;11.63;85.86
73558;BME280;61829;53.286;10.434;2023-04-24T01:36:41;99757.66;;;11.64;85.36
73558;BME280;61829;53.286;10.434;2023-04-24T01:39:07;99751.03;;;11.60;85.70
73558;BME280;61829;53.286;10.434;2023-04-24T01:41:33;99753.34;;;11.57;85.33
73558;BME280;61829;53.286;10.434;2023-04-24T01:43:59;99745.91;;;11.52;85.89
73558;BME280;61829;53.286;10.434;2023-04-24T01:46:25;99744.25;;;11.51;85.52
73558;BME280;61829;53.286;10.434;2023-04-24T01:48:51;99744.91;;;11.46;85.41
73558;BME280;61829;53.286;10.434;2023-04-24T01:51:18;99750.13;;;11.41;85.89
73558;BME280;61829;53.286;10.434;2023-04-24T01:53:44;99750.34;;;11.40;86.00
73558;BME280;61829;53.286;10.434;2023-04-24T01:56:10;99751.19;;;11.34;86.03
73558;BME280;61829;53.286;10.434;2023-04-24T01:58:35;99744.59;;;11.30;86.06
73558;BME280;61829;53.286;10.434;2023-04-24T02:01:01;99742.34;;;11.27;85.87
73558;BME280;61829;53.286;10.434;2023-04-24T02:03:27;99728.44;;;11.23;86.61
73558;BME280;61829;53.286;10.434;2023-04-24T02:05:53;99743.63;;;11.17;86.14
73558;BME280;61829;53.286;10.434;2023-04-24T02:08:19;99739.47;;;11.15;86.44
73558;BME280;61829;53.286;10.434;2023-04-24T02:10:45;99740.72;;;11.12;85.50
73558;BME280;61829;53.286;10.434;2023-04-24T02:13:10;99738.47;;;11.09;86.04
73558;BME280;61829;53.286;10.434;2023-04-24T02:15:37;99737.25;;;11.05;85.97
73558;BME280;61829;53.286;10.434;2023-04-24T02:18:02;99744.72;;;11.03;86.21
73558;BME280;61829;53.286;10.434;2023-04-24T02:20:29;99736.44;;;10.98;86.66
73558;BME280;61829;53.286;10.434;2023-04-24T02:22:54;99730.03;;;10.92;86.92
73558;BME280;61829;53.286;10.434;2023-04-24T02:25:21;99732.56;;;10.87;86.67
73558;BME280;61829;53.286;10.434;2023-04-24T02:27:47;99742.34;;;10.82;87.38
73558;BME280;61829;53.286;10.434;2023-04-24T02:30:13;99742.78;;;10.78;87.00
73558;BME280;61829;53.286;10.434;2023-04-24T02:32:38;99740.06;;;10.72;87.47
73558;BME280;61829;53.286;10.434;2023-04-24T02:35:05;99725.59;;;10.66;87.38
73558;BME280;61829;53.286;10.434;2023-04-24T02:37:31;99726.44;;;10.60;87.85
73558;BME280;61829;53.286;10.434;2023-04-24T02:39:57;99727.28;;;10.54;88.06
73558;BME280;61829;53.286;10.434;2023-04-24T02:42:22;99734.75;;;10.52;88.68
73558;BME280;61829;53.286;10.434;2023-04-24T02:44:48;99732.28;;;10.50;89.07
73558;BME280;61829;53.286;10.434;2023-04-24T02:47:16;99736.22;;;10.48;89.31
73558;BME280;61829;53.286;10.434;2023-04-24T02:49:41;99732.09;;;10.45;89.07
73558;BME280;61829;53.286;10.434;2023-04-24T02:52:07;99727.53;;;10.46;89.32
73558;BME280;61829;53.286;10.434;2023-04-24T02:54:33;99735.59;;;10.46;89.19
73558;BME280;61829;53.286;10.434;2023-04-24T02:56:59;99729.41;;;10.45;88.78
73558;BME280;61829;53.286;10.434;2023-04-24T02:59:26;99734.97;;;10.44;87.25
73558;BME280;61829;53.286;10.434;2023-04-24T03:01:53;99749.06;;;10.46;86.29
73558;BME280;61829;53.286;10.434;2023-04-24T03:04:19;99748.25;;;10.45;86.23
73558;BME280;61829;53.286;10.434;2023-04-24T03:06:45;99748.88;;;10.47;86.21
73558;BME280;61829;53.286;10.434;2023-04-24T03:09:11;99745.31;;;10.47;86.93
73558;BME280;61829;53.286;10.434;2023-04-24T03:11:37;99739.34;;;10.45;86.90
73558;BME280;61829;53.286;10.434;2023-04-24T03:14:03;99747.44;;;10.45;86.70
73558;BME280;61829;53.286;10.434;2023-04-24T03:16:29;99749.91;;;10.40;86.60
73558;BME280;61829;53.286;10.434;2023-04-24T03:18:54;99743.91;;;10.38;86.90
73558;BME280;61829;53.286;10.434;2023-04-24T03:21:20;99744.97;;;10.37;86.86
73558;BME280;61829;53.286;10.434;2023-04-24T03:23:46;99746.63;;;10.31;86.42
73558;BME280;61829;53.286;10.434;2023-04-24T03:26:12;99748.69;;;10.29;86.62
73558;BME280;61829;53.286;10.434;2023-04-24T03:28:38;99737.69;;;10.24;85.91
73558;BME280;61829;53.286;10.434;2023-04-24T03:31:04;99739.97;;;10.20;86.44
73558;BME280;61829;53.286;10.434;2023-04-24T03:33:30;99739.97;;;10.20;85.48
73558;BME280;61829;53.286;10.434;2023-04-24T03:35:55;99729.63;;;10.17;85.86
73558;BME280;61829;53.286;10.434;2023-04-24T03:38:22;99729.00;;;10.15;85.32
73558;BME280;61829;53.286;10.434;2023-04-24T03:40:47;99734.38;;;10.15;85.23
73558;BME280;61829;53.286;10.434;2023-04-24T03:46:55;99729.00;;;10.02;85.21
73558;BME280;61829;53.286;10.434;2023-04-24T03:49:21;99735.84;;;9.98;85.25
73558;BME280;61829;53.286;10.434;2023-04-24T03:51:47;99728.19;;;9.95;84.57
73558;BME280;61829;53.286;10.434;2023-04-24T03:54:13;99733.56;;;9.95;83.55
73558;BME280;61829;53.286;10.434;2023-04-24T03:56:39;99732.31;;;9.90;83.48
73558;BME280;61829;53.286;10.434;2023-04-24T03:59:05;99736.28;;;9.88;83.63
73558;BME280;61829;53.286;10.434;2023-04-24T04:01:33;99734.81;;;9.85;83.52
73558;BME280;61829;53.286;10.434;2023-04-24T04:04:03;99741.44;;;9.83;82.80
73558;BME280;61829;53.286;10.434;2023-04-24T04:06:29;99744.56;;;9.80;82.27
73558;BME280;61829;53.286;10.434;2023-04-24T04:08:56;99732.94;;;9.79;82.44
73558;BME280;61829;53.286;10.434;2023-04-24T04:11:22;99735.84;;;9.78;82.56
73558;BME280;61829;53.286;10.434;2023-04-24T04:13:48;99735.44;;;9.74;81.97
73558;BME280;61829;53.286;10.434;2023-04-24T04:16:17;99741.03;;;9.73;82.64
73558;BME280;61829;53.286;10.434;2023-04-24T04:18:43;99737.09;;;9.69;81.86
73558;BME280;61829;53.286;10.434;2023-04-24T04:21:09;99732.31;;;9.64;82.21
73558;BME280;61829;53.286;10.434;2023-04-24T04:23:35;99741.63;;;9.61;82.43
73558;BME280;61829;53.286;10.434;2023-04-24T04:26:02;99742.88;;;9.59;82.55
73558;BME280;61829;53.286;10.434;2023-04-24T04:28:29;99736.88;;;9.57;82.32
73558;BME280;61829;53.286;10.434;2023-04-24T04:30:56;99741.81;;;9.53;82.76
73558;BME280;61829;53.286;10.434;2023-04-24T04:33:23;99741.00;;;9.53;82.36
73558;BME280;61829;53.286;10.434;2023-04-24T04:35:49;99741.41;;;9.50;82.82
73558;BME280;61829;53.286;10.434;2023-04-24T04:38:18;99745.75;;;9.51;82.65
73558;BME280;61829;53.286;10.434;2023-04-24T04:40:44;99731.09;;;9.73;81.78
73558;BME280;61829;53.286;10.434;2023-04-24T04:43:11;99725.50;;;10.01;80.79
73558;BME280;61829;53.286;10.434;2023-04-24T04:45:37;99734.81;;;10.05;80.45
73558;BME280;61829;53.286;10.434;2023-04-24T04:48:05;99727.16;;;10.02;80.00
73558;BME280;61829;53.286;10.434;2023-04-24T04:50:33;99732.09;;;9.99;80.21
73558;BME280;61829;53.286;10.434;2023-04-24T04:52:59;99736.69;;;10.05;79.78
73558;BME280;61829;53.286;10.434;2023-04-24T04:55:25;99744.50;;;10.26;79.34
73558;BME280;61829;53.286;10.434;2023-04-24T04:57:51;99735.53;;;10.66;78.48
73558;BME280;61829;53.286;10.434;2023-04-24T05:00:18;99736.97;;;11.20;76.55
73558;BME280;61829;53.286;10.434;2023-04-24T05:02:43;99728.28;;;11.75;73.95
73558;BME280;61829;53.286;10.434;2023-04-24T05:05:10;99724.44;;;12.14;71.87
73558;BME280;61829;53.286;10.434;2023-04-24T05:07:35;99728.09;;;12.45;70.46
73558;BME280;61829;53.286;10.434;2023-04-24T05:10:02;99735.75;;;12.85;68.73
73558;BME280;61829;53.286;10.434;2023-04-24T05:12:27;99729.47;;;13.21;67.76
73558;BME280;61829;53.286;10.434;2023-04-24T05:14:53;99724.28;;;13.50;66.07
73558;BME280;61829;53.286;10.434;2023-04-24T05:17:25;99725.75;;;13.76;64.82
73558;BME280;61829;53.286;10.434;2023-04-24T05:19:54;99720.28;;;14.06;64.23
73558;BME280;61829;53.286;10.434;2023-04-24T05:22:21;99723.91;;;14.23;63.25
73558;BME280;61829;53.286;10.434;2023-04-24T05:24:47;99729.34;;;14.11;63.27
73558;BME280;61829;53.286;10.434;2023-04-24T05:27:13;99736.53;;;14.06;63.87
73558;BME280;61829;53.286;10.434;2023-04-24T05:29:39;99729.47;;;14.05;63.69
73558;BME280;61829;53.286;10.434;2023-04-24T05:32:05;99734.28;;;14.03;63.73
73558;BME280;61829;53.286;10.434;2023-04-24T05:34:32;99739.47;;;14.16;63.76
73558;BME280;61829;53.286;10.434;2023-04-24T05:36:57;99737.72;;;14.57;62.05
73558;BME280;61829;53.286;10.434;2023-04-24T05:39:24;99747.66;;;14.92;61.52
73558;BME280;61829;53.286;10.434;2023-04-24T05:41:50;99749.69;;;15.25;59.53
73558;BME280;61829;53.286;10.434;2023-04-24T05:44:16;99750.91;;;15.46;59.05
73558;BME280;61829;53.286;10.434;2023-04-24T05:46:42;99756.06;;;15.76;57.30
73558;BME280;61829;53.286;10.434;2023-04-24T05:49:08;99755.66;;;16.01;57.06
73558;BME280;61829;53.286;10.434;2023-04-24T05:51:34;99749.31;;;16.12;55.87
73558;BME280;61829;53.286;10.434;2023-04-24T05:54:00;99757.25;;;16.14;54.50
73558;BME280;61829;53.286;10.434;2023-04-24T05:56:27;99753.94;;;16.29;54.85
73558;BME280;61829;53.286;10.434;2023-04-24T05:58:53;99754.50;;;16.48;54.53
73558;BME280;61829;53.286;10.434;2023-04-24T06:01:19;99752.09;;;16.51;53.52
73558;BME280;61829;53.286;10.434;2023-04-24T06:03:45;99755.53;;;16.47;52.65
73558;BME280;61829;53.286;10.434;2023-04-24T06:06:11;99756.22;;;16.54;52.29
73558;BME280;61829;53.286;10.434;2023-04-24T06:08:38;99752.78;;;16.64;51.98
73558;BME280;61829;53.286;10.434;2023-04-24T06:11:03;99753.66;;;16.86;51.53
73558;BME280;61829;53.286;10.434;2023-04-24T06:13:29;99763.28;;;17.16;50.34
73558;BME280;61829;53.286;10.434;2023-04-24T06:15:55;99754.31;;;17.42;49.71
73558;BME280;61829;53.286;10.434;2023-04-24T06:18:21;99760.97;;;17.79;48.81
73558;BME280;61829;53.286;10.434;2023-04-24T06:20:47;99757.56;;;17.93;47.90
73558;BME280;61829;53.286;10.434;2023-04-24T06:23:13;99759.84;;;18.07;47.94
73558;BME280;61829;53.286;10.434;2023-04-24T06:25:39;99751.44;;;18.13;47.36
73558;BME280;61829;53.286;10.434;2023-04-24T06:28:05;99758.94;;;18.33;47.02
73558;BME280;61829;53.286;10.434;2023-04-24T06:30:31;99765.06;;;18.51;46.54
73558;BME280;61829;53.286;10.434;2023-04-24T06:32:57;99760.97;;;18.53;45.64
73558;BME280;61829;53.286;10.434;2023-04-24T06:35:22;99761.47;;;18.40;45.94
73558;BME280;61829;53.286;10.434;2023-04-24T06:37:48;99745.94;;;18.46;45.54
73558;BME280;61829;53.286;10.434;2023-04-24T06:40:14;99754.25;;;18.66;45.33
73558;BME280;61829;53.286;10.434;2023-04-24T06:42:40;99746.91;;;18.72;45.28
73558;BME280;61829;53.286;10.434;2023-04-24T06:45:06;99749.19;;;18.90;45.12
73558;BME280;61829;53.286;10.434;2023-04-24T06:47:33;99754.47;;;19.12;44.45
73558;BME280;61829;53.286;10.434;2023-04-24T06:49:58;99751.56;;;19.49;43.63
73558;BME280;61829;53.286;10.434;2023-04-24T06:52:25;99748.38;;;19.83;43.67
73558;BME280;61829;53.286;10.434;2023-04-24T06:54:51;99749.19;;;20.04;42.49
73558;BME280;61829;53.286;10.434;2023-04-24T06:57:17;99749.16;;;20.40;42.73
73558;BME280;61829;53.286;10.434;2023-04-24T06:59:43;99751.63;;;20.41;40.92
73558;BME280;61829;53.286;10.434;2023-04-24T07:02:09;99747.53;;;20.29;41.08
73558;BME280;61829;53.286;10.434;2023-04-24T07:04:35;99748.63;;;20.33;40.99
73558;BME280;61829;53.286;10.434;2023-04-24T07:07:02;99751.34;;;20.33;41.44
73558;BME280;61829;53.286;10.434;2023-04-24T07:09:28;99750.50;;;20.32;41.59
73558;BME280;61829;53.286;10.434;2023-04-24T07:11:54;99757.34;;;20.60;41.48
73558;BME280;61829;53.286;10.434;2023-04-24T07:14:22;99751.34;;;20.58;40.71
73558;BME280;61829;53.286;10.434;2023-04-24T07:16:48;99745.03;;;20.58;41.13
73558;BME280;61829;53.286;10.434;2023-04-24T07:19:14;99751.03;;;20.65;40.86
73558;BME280;61829;53.286;10.434;2023-04-24T07:21:40;99762.53;;;20.62;40.76
73558;BME280;61829;53.286;10.434;2023-04-24T07:24:06;99748.59;;;20.43;40.09
73558;BME280;61829;53.286;10.434;2023-04-24T07:26:37;99757.66;;;20.08;40.75
73558;BME280;61829;53.286;10.434;2023-04-24T07:29:03;99759.00;;;20.21;40.48
73558;BME280;61829;53.286;10.434;2023-04-24T07:31:29;99759.03;;;19.95;41.04
73558;BME280;61829;53.286;10.434;2023-04-24T07:33:55;99760.13;;;19.89;41.33
73558;BME280;61829;53.286;10.434;2023-04-24T07:36:24;99769.06;;;19.64;41.16
73558;BME280;61829;53.286;10.434;2023-04-24T07:38:51;99769.88;;;19.49;41.94
73558;BME280;61829;53.286;10.434;2023-04-24T07:41:18;99753.84;;;18.90;41.89
73558;BME280;61829;53.286;10.434;2023-04-24T07:43:44;99763.22;;;18.61;42.80
73558;BME280;61829;53.286;10.434;2023-04-24T07:46:10;99758.94;;;18.33;43.78
73558;BME280;61829;53.286;10.434;2023-04-24T07:48:36;99760.63;;;18.39;44.24
73558;BME280;61829;53.286;10.434;2023-04-24T07:51:02;99760.22;;;18.63;43.33
73558;BME280;61829;53.286;10.434;2023-04-24T07:53:28;99773.84;;;18.58;43.70
73558;BME280;61829;53.286;10.434;2023-04-24T07:55:55;99764.56;;;18.59;43.56
73558;BME280;61829;53.286;10.434;2023-04-24T07:58:24;99775.06;;;18.35;44.25
73558;BME280;61829;53.286;10.434;2023-04-24T08:00:50;99763.84;;;18.31;44.98
73558;BME280;61829;53.286;10.434;2023-04-24T08:03:16;99766.72;;;18.14;44.88
73558;BME280;61829;53.286;10.434;2023-04-24T08:05:45;99772.38;;;18.40;44.53
73558;BME280;61829;53.286;10.434;2023-04-24T08:08:11;99768.44;;;18.68;44.53
73558;BME280;61829;53.286;10.434;2023-04-24T08:10:37;99775.22;;;19.13;44.24
73558;BME280;61829;53.286;10.434;2023-04-24T08:13:03;99782.31;;;19.09;43.23
73558;BME280;61829;53.286;10.434;2023-04-24T08:15:30;99781.53;;;18.66;44.55
73558;BME280;61829;53.286;10.434;2023-04-24T08:17:57;99792.81;;;18.43;45.21
73558;BME280;61829;53.286;10.434;2023-04-24T08:20:23;99786.34;;;18.49;45.42
73558;BME280;61829;53.286;10.434;2023-04-24T08:22:49;99788.00;;;18.55;44.54
73558;BME280;61829;53.286;10.434;2023-04-24T08:25:15;99793.44;;;18.12;44.14
73558;BME280;61829;53.286;10.434;2023-04-24T08:27:44;99785.16;;;18.39;44.29
73558;BME280;61829;53.286;10.434;2023-04-24T08:30:10;99779.00;;;18.54;43.71
73558;BME280;61829;53.286;10.434;2023-04-24T08:32:36;99775.97;;;18.51;43.56
73558;BME280;61829;53.286;10.434;2023-04-24T08:35:04;99779.34;;;18.63;43.34
73558;BME280;61829;53.286;10.434;2023-04-24T08:37:30;99779.97;;;18.75;42.53
73558;BME280;61829;53.286;10.434;2023-04-24T08:39:56;99787.41;;;18.90;42.65
73558;BME280;61829;53.286;10.434;2023-04-24T08:42:22;99785.03;;;19.04;42.52
73558;BME280;61829;53.286;10.434;2023-04-24T08:44:49;99785.91;;;19.20;41.68
73558;BME280;61829;53.286;10.434;2023-04-24T08:47:15;99806.91;;;19.09;42.29
73558;BME280;61829;53.286;10.434;2023-04-24T08:49:42;99802.03;;;18.69;42.06
73558;BME280;61829;53.286;10.434;2023-04-24T08:52:08;99805.34;;;18.38;42.92
73558;BME280;61829;53.286;10.434;2023-04-24T08:54:35;99793.13;;;18.09;44.33
73558;BME280;61829;53.286;10.434;2023-04-24T08:57:02;99798.19;;;17.95;44.00
73558;BME280;61829;53.286;10.434;2023-04-24T08:59:30;99807.09;;;17.85;44.88
73558;BME280;61829;53.286;10.434;2023-04-24T09:01:57;99808.03;;;17.74;44.61
73558;BME280;61829;53.286;10.434;2023-04-24T09:04:23;99803.47;;;17.53;45.31
73558;BME280;61829;53.286;10.434;2023-04-24T09:06:55;99800.75;;;17.53;45.76
73558;BME280;61829;53.286;10.434;2023-04-24T09:09:22;99808.41;;;17.56;45.69
73558;BME280;61829;53.286;10.434;2023-04-24T09:11:52;99801.88;;;17.57;45.68
73558;BME280;61829;53.286;10.434;2023-04-24T09:14:21;99809.91;;;17.46;46.00
73558;BME280;61829;53.286;10.434;2023-04-24T09:16:49;99812.34;;;17.43;46.18
73558;BME280;61829;53.286;10.434;2023-04-24T09:19:16;99817.75;;;17.16;47.00
73558;BME280;61829;53.286;10.434;2023-04-24T09:21:45;99822.59;;;16.75;49.05
73558;BME280;61829;53.286;10.434;2023-04-24T09:24:17;99821.47;;;16.54;49.28
73558;BME280;61829;53.286;10.434;2023-04-24T09:26:44;99827.06;;;16.47;48.69
73558;BME280;61829;53.286;10.434;2023-04-24T09:29:17;99820.81;;;16.47;48.86
73558;BME280;61829;53.286;10.434;2023-04-24T09:31:44;99831.59;;;16.42;48.69
73558;BME280;61829;53.286;10.434;2023-04-24T09:34:11;99830.47;;;16.37;49.48
73558;BME280;61829;53.286;10.434;2023-04-24T09:36:39;99826.16;;;16.42;49.58
73558;BME280;61829;53.286;10.434;2023-04-24T09:39:09;99830.06;;;16.46;49.68
73558;BME280;61829;53.286;10.434;2023-04-24T09:44:17;99824.69;;;17.06;48.59
73558;BME280;61829;53.286;10.434;2023-04-24T09:46:45;99825.34;;;17.14;47.68
73558;BME280;61829;53.286;10.434;2023-04-24T09:49:16;99823.03;;;17.05;47.74
73558;BME280;61829;53.286;10.434;2023-04-24T09:51:42;99820.53;;;16.99;46.96
73558;BME280;61829;53.286;10.434;2023-04-24T09:54:14;99825.66;;;16.78;46.53
73558;BME280;61829;53.286;10.434;2023-04-24T09:56:45;99829.97;;;16.57;47.23
73558;BME280;61829;53.286;10.434;2023-04-24T09:59:16;99834.19;;;16.48;46.84
73558;BME280;61829;53.286;10.434;2023-04-24T10:01:42;99831.88;;;16.40;47.66
73558;BME280;61829;53.286;10.434;2023-04-24T10:06:43;99831.69;;;16.30;47.99
73558;BME280;61829;53.286;10.434;2023-04-24T10:09:09;99831.69;;;16.64;48.23
73558;BME280;61829;53.286;10.434;2023-04-24T10:11:41;99836.34;;;17.02;48.19
73558;BME280;61829;53.286;10.434;2023-04-24T10:14:10;99845.13;;;17.09;47.71
73558;BME280;61829;53.286;10.434;2023-04-24T10:16:38;99847.28;;;17.29;49.40
73558;BME280;61829;53.286;10.434;2023-04-24T10:19:05;99849.50;;;17.54;46.95
73558;BME280;61829;53.286;10.434;2023-04-24T10:21:32;99851.78;;;17.40;45.74
73558;BME280;61829;53.286;10.434;2023-04-24T10:23:58;99859.97;;;17.18;46.49
73558;BME280;61829;53.286;10.434;2023-04-24T10:26:26;99847.19;;;17.19;46.64
73558;BME280;61829;53.286;10.434;2023-04-24T10:28:53;99846.91;;;17.42;46.85
73558;BME280;61829;53.286;10.434;2023-04-24T10:31:20;99836.34;;;17.46;50.13
73558;BME280;61829;53.286;10.434;2023-04-24T10:33:47;99839.19;;;17.34;47.41
73558;BME280;61829;53.286;10.434;2023-04-24T10:36:15;99846.91;;;17.20;47.09
73558;BME280;61829;53.286;10.434;2023-04-24T10:38:43;99842.75;;;17.13;46.68
73558;BME280;61829;53.286;10.434;2023-04-24T10:41:12;99841.97;;;17.17;46.86
73558;BME280;61829;53.286;10.434;2023-04-24T10:43:45;99847.16;;;17.41;47.19
73558;BME280;61829;53.286;10.434;2023-04-24T10:46:19;99854.44;;;17.57;47.75
73558;BME280;61829;53.286;10.434;2023-04-24T10:48:53;99847.81;;;17.48;45.08
73558;BME280;61829;53.286;10.434;2023-04-24T10:51:23;99849.19;;;17.28;46.75
73558;BME280;61829;53.286;10.434;2023-04-24T10:53:50;99835.19;;;16.98;45.77
73558;BME280;61829;53.286;10.434;2023-04-24T10:56:17;99846.03;;;16.76;46.96
73558;BME280;61829;53.286;10.434;2023-04-24T10:58:44;99841.91;;;16.56;46.15
73558;BME280;61829;53.286;10.434;2023-04-24T11:01:30;99842.00;;;16.28;47.93
73558;BME280;61829;53.286;10.434;2023-04-24T11:03:59;99835.91;;;16.54;49.55
73558;BME280;61829;53.286;10.434;2023-04-24T11:06:30;99838.03;;;16.86;49.82
73558;BME280;61829;53.286;10.434;2023-04-24T11:09:04;99840.34;;;17.16;48.68
73558;BME280;61829;53.286;10.434;2023-04-24T11:11:34;99839.88;;;17.46;45.71
73558;BME280;61829;53.286;10.434;2023-04-24T11:14:02;99841.25;;;17.71;45.75
73558;BME280;61829;53.286;10.434;2023-04-24T11:16:53;99833.53;;;17.63;42.73
73558;BME280;61829;53.286;10.434;2023-04-24T11:19:21;99831.16;;;17.44;43.54
73558;BME280;61829;53.286;10.434;2023-04-24T11:21:56;99827.03;;;17.20;43.58
73558;BME280;61829;53.286;10.434;2023-04-24T11:26:51;99846.00;;;16.93;45.20
73558;BME280;61829;53.286;10.434;2023-04-24T11:29:19;99848.50;;;16.77;44.86
73558;BME280;61829;53.286;10.434;2023-04-24T11:31:46;99839.84;;;16.64;45.35
73558;BME280;61829;53.286;10.434;2023-04-24T11:34:18;99821.88;;;16.63;44.55
73558;BME280;61829;53.286;10.434;2023-04-24T11:36:47;99823.16;;;16.94;44.15
73558;BME280;61829;53.286;10.434;2023-04-24T11:39:14;99825.78;;;17.05;43.22
73558;BME280;61829;53.286;10.434;2023-04-24T11:41:40;99835.97;;;16.93;42.14
73558;BME280;61829;53.286;10.434;2023-04-24T11:44:08;99835.88;;;16.71;42.51
73558;BME280;61829;53.286;10.434;2023-04-24T11:46:34;99841.91;;;16.73;42.37
73558;BME280;61829;53.286;10.434;2023-04-24T11:49:00;99841.50;;;16.65;43.24
73558;BME280;61829;53.286;10.434;2023-04-24T11:51:26;99837.13;;;16.64;42.69
73558;BME280;61829;53.286;10.434;2023-04-24T11:53:55;99839.84;;;16.64;43.02
73558;BME280;61829;53.286;10.434;2023-04-24T11:56:23;99841.66;;;16.58;43.15
73558;BME280;61829;53.286;10.434;2023-04-24T11:58:52;99840.63;;;16.42;44.23
73558;BME280;61829;53.286;10.434;2023-04-24T12:01:18;99830.88;;;16.29;43.09
73558;BME280;61829;53.286;10.434;2023-04-24T12:03:48;99850.63;;;16.25;45.46
73558;BME280;61829;53.286;10.434;2023-04-24T12:06:14;99850.31;;;16.21;45.44
73558;BME280;61829;53.286;10.434;2023-04-24T12:08:40;99848.34;;;16.16;45.94
73558;BME280;61829;53.286;10.434;2023-04-24T12:11:07;99847.25;;;16.01;46.59
73558;BME280;61829;53.286;10.434;2023-04-24T12:13:34;99845.69;;;16.05;46.62
73558;BME280;61829;53.286;10.434;2023-04-24T12:16:03;99850.78;;;16.01;46.18
73558;BME280;61829;53.286;10.434;2023-04-24T12:18:33;99848.13;;;15.89;46.43
73558;BME280;61829;53.286;10.434;2023-04-24T12:21:21;99857.25;;;15.83;46.89
73558;BME280;61829;53.286;10.434;2023-04-24T12:23:47;99851.34;;;15.86;47.47
73558;BME280;61829;53.286;10.434;2023-04-24T12:26:17;99854.19;;;16.08;47.06
73558;BME280;61829;53.286;10.434;2023-04-24T12:28:48;99850.56;;;16.20;46.67
73558;BME280;61829;53.286;10.434;2023-04-24T12:31:17;99857.25;;;16.29;47.00
73558;BME280;61829;53.286;10.434;2023-04-24T12:33:43;99844.56;;;16.34;46.37
73558;BME280;61829;53.286;10.434;2023-04-24T12:36:10;99846.69;;;16.49;46.78
73558;BME280;61829;53.286;10.434;2023-04-24T12:38:38;99847.00;;;16.53;46.29
73558;BME280;61829;53.286;10.434;2023-04-24T12:41:12;99848.69;;;16.54;46.81
73558;BME280;61829;53.286;10.434;2023-04-24T12:43:51;99843.75;;;16.51;46.12
73558;BME280;61829;53.286;10.434;2023-04-24T12:46:16;99849.41;;;16.49;46.45
73558;BME280;61829;53.286;10.434;2023-04-24T12:48:43;99850.59;;;16.36;44.74
73558;BME280;61829;53.286;10.434;2023-04-24T12:51:08;99851.97;;;16.22;45.30
73558;BME280;61829;53.286;10.434;2023-04-24T12:53:34;99850.56;;;16.20;45.54
73558;BME280;61829;53.286;10.434;2023-04-24T12:56:00;99853.44;;;16.13;45.76
73558;BME280;61829;53.286;10.434;2023-04-24T12:58:26;99847.34;;;16.06;47.11
73558;BME280;61829;53.286;10.434;2023-04-24T13:00:54;99850.63;;;15.91;46.87